sensor_id;sensor_type;location;lat;lon;timestamp;P1;durP1;ratioP1;P2;durP2;ratioP2
25868;SDS011;13688;53.154;18.136;2023-01-25T00:00:24;22.10;;;14.17;;
25868;SDS011;13688;53.154;18.136;2023-01-25T00:05:56;23.43;;;13.73;;
25868;SDS011;13688;53.154;18.136;2023-01-25T00:11:15;20.80;;;13.00;;
25868;SDS011;13688;53.154;18.136;2023-01-25T00:16:40;22.13;;;13.73;;
25868;SDS011;13688;53.154;18.136;2023-01-25T00:22:02;19.20;;;13.30;;
25868;SDS011;13688;53.154;18.136;2023-01-25T00:27:24;25.03;;;14.70;;
25868;SDS011;13688;53.154;18.136;2023-01-25T00:32:51;22.80;;;13.50;;
25868;SDS011;13688;53.154;18.136;2023-01-25T00:38:52;24.83;;;15.40;;
25868;SDS011;13688;53.154;18.136;2023-01-25T00:43:48;25.93;;;16.93;;
25868;SDS011;13688;53.154;18.136;2023-01-25T00:49:34;25.13;;;15.30;;
25868;SDS011;13688;53.154;18.136;2023-01-25T00:54:37;26.53;;;15.97;;
25868;SDS011;13688;53.154;18.136;2023-01-25T01:00:00;23.87;;;15.43;;
25868;SDS011;13688;53.154;18.136;2023-01-25T01:05:23;27.02;;;16.23;;
25868;SDS011;13688;53.154;18.136;2023-01-25T01:10:46;21.37;;;13.88;;
25868;SDS011;13688;53.154;18.136;2023-01-25T01:16:10;23.62;;;15.13;;
25868;SDS011;13688;53.154;18.136;2023-01-25T01:21:33;23.77;;;15.70;;
25868;SDS011;13688;53.154;18.136;2023-01-25T01:26:56;25.30;;;15.57;;
25868;SDS011;13688;53.154;18.136;2023-01-25T01:32:19;27.27;;;15.70;;
25868;SDS011;13688;53.154;18.136;2023-01-25T01:37:41;24.43;;;13.77;;
25868;SDS011;13688;53.154;18.136;2023-01-25T01:43:05;23.60;;;14.05;;
25868;SDS011;13688;53.154;18.136;2023-01-25T01:48:47;19.67;;;12.60;;
25868;SDS011;13688;53.154;18.136;2023-01-25T01:54:19;23.57;;;13.63;;
25868;SDS011;13688;53.154;18.136;2023-01-25T01:59:58;21.83;;;14.10;;
25868;SDS011;13688;53.154;18.136;2023-01-25T02:10:59;20.93;;;14.07;;
25868;SDS011;13688;53.154;18.136;2023-01-25T02:16:23;21.47;;;13.37;;
25868;SDS011;13688;53.154;18.136;2023-01-25T02:21:46;24.87;;;14.57;;
25868;SDS011;13688;53.154;18.136;2023-01-25T02:27:10;23.37;;;14.93;;
25868;SDS011;13688;53.154;18.136;2023-01-25T02:32:33;26.23;;;15.50;;
25868;SDS011;13688;53.154;18.136;2023-01-25T02:37:56;26.60;;;15.07;;
25868;SDS011;13688;53.154;18.136;2023-01-25T02:43:34;24.07;;;15.30;;
25868;SDS011;13688;53.154;18.136;2023-01-25T02:48:58;23.50;;;14.67;;
25868;SDS011;13688;53.154;18.136;2023-01-25T02:54:22;23.67;;;15.93;;
25868;SDS011;13688;53.154;18.136;2023-01-25T02:59:47;24.63;;;16.37;;
25868;SDS011;13688;53.154;18.136;2023-01-25T03:05:09;26.73;;;16.83;;
25868;SDS011;13688;53.154;18.136;2023-01-25T03:10:32;28.17;;;17.17;;
25868;SDS011;13688;53.154;18.136;2023-01-25T03:15:59;28.33;;;17.43;;
25868;SDS011;13688;53.154;18.136;2023-01-25T03:21:24;26.80;;;17.93;;
25868;SDS011;13688;53.154;18.136;2023-01-25T03:26:46;29.83;;;17.80;;
25868;SDS011;13688;53.154;18.136;2023-01-25T03:32:16;26.17;;;17.63;;
25868;SDS011;13688;53.154;18.136;2023-01-25T03:37:39;27.60;;;17.40;;
25868;SDS011;13688;53.154;18.136;2023-01-25T03:43:01;26.43;;;17.37;;
25868;SDS011;13688;53.154;18.136;2023-01-25T03:48:23;27.10;;;17.05;;
25868;SDS011;13688;53.154;18.136;2023-01-25T03:53:47;28.10;;;18.07;;
25868;SDS011;13688;53.154;18.136;2023-01-25T03:59:11;26.52;;;18.25;;
25868;SDS011;13688;53.154;18.136;2023-01-25T04:04:34;27.07;;;18.92;;
25868;SDS011;13688;53.154;18.136;2023-01-25T04:09:56;28.93;;;18.47;;
25868;SDS011;13688;53.154;18.136;2023-01-25T04:15:19;28.43;;;16.50;;
25868;SDS011;13688;53.154;18.136;2023-01-25T04:20:41;27.00;;;18.13;;
25868;SDS011;13688;53.154;18.136;2023-01-25T04:26:08;27.33;;;17.73;;
25868;SDS011;13688;53.154;18.136;2023-01-25T04:31:31;28.17;;;19.10;;
25868;SDS011;13688;53.154;18.136;2023-01-25T04:36:54;28.50;;;18.33;;
25868;SDS011;13688;53.154;18.136;2023-01-25T04:42:16;23.60;;;16.35;;
25868;SDS011;13688;53.154;18.136;2023-01-25T04:47:39;26.27;;;17.17;;
25868;SDS011;13688;53.154;18.136;2023-01-25T04:53:05;25.80;;;17.13;;
25868;SDS011;13688;53.154;18.136;2023-01-25T04:58:28;24.60;;;17.40;;
25868;SDS011;13688;53.154;18.136;2023-01-25T05:03:51;27.40;;;17.73;;
25868;SDS011;13688;53.154;18.136;2023-01-25T05:09:13;28.90;;;18.07;;
25868;SDS011;13688;53.154;18.136;2023-01-25T05:14:36;27.57;;;17.83;;
25868;SDS011;13688;53.154;18.136;2023-01-25T05:19:59;27.17;;;18.23;;
25868;SDS011;13688;53.154;18.136;2023-01-25T05:25:22;23.23;;;16.47;;
25868;SDS011;13688;53.154;18.136;2023-01-25T05:31:03;25.67;;;15.70;;
25868;SDS011;13688;53.154;18.136;2023-01-25T05:36:25;25.57;;;16.27;;
25868;SDS011;13688;53.154;18.136;2023-01-25T05:41:48;22.97;;;16.30;;
25868;SDS011;13688;53.154;18.136;2023-01-25T05:47:11;22.17;;;15.13;;
25868;SDS011;13688;53.154;18.136;2023-01-25T05:52:34;28.00;;;17.30;;
25868;SDS011;13688;53.154;18.136;2023-01-25T05:57:56;23.97;;;16.20;;
25868;SDS011;13688;53.154;18.136;2023-01-25T06:03:18;25.60;;;15.00;;
25868;SDS011;13688;53.154;18.136;2023-01-25T06:08:41;21.90;;;14.10;;
25868;SDS011;13688;53.154;18.136;2023-01-25T06:14:03;18.73;;;12.98;;
25868;SDS011;13688;53.154;18.136;2023-01-25T06:19:26;19.37;;;13.43;;
25868;SDS011;13688;53.154;18.136;2023-01-25T06:24:48;20.97;;;14.17;;
25868;SDS011;13688;53.154;18.136;2023-01-25T06:30:12;20.83;;;14.37;;
25868;SDS011;13688;53.154;18.136;2023-01-25T06:35:34;20.77;;;13.97;;
25868;SDS011;13688;53.154;18.136;2023-01-25T06:41:04;22.55;;;15.15;;
25868;SDS011;13688;53.154;18.136;2023-01-25T06:46:25;25.97;;;16.37;;
25868;SDS011;13688;53.154;18.136;2023-01-25T06:51:48;24.03;;;14.90;;
25868;SDS011;13688;53.154;18.136;2023-01-25T06:57:11;21.20;;;14.47;;
25868;SDS011;13688;53.154;18.136;2023-01-25T07:02:34;28.65;;;16.20;;
25868;SDS011;13688;53.154;18.136;2023-01-25T07:07:57;27.43;;;16.33;;
25868;SDS011;13688;53.154;18.136;2023-01-25T07:13:21;23.87;;;16.17;;
25868;SDS011;13688;53.154;18.136;2023-01-25T07:18:44;22.15;;;14.73;;
25868;SDS011;13688;53.154;18.136;2023-01-25T07:24:09;19.98;;;13.00;;
25868;SDS011;13688;53.154;18.136;2023-01-25T07:29:32;17.20;;;11.65;;
25868;SDS011;13688;53.154;18.136;2023-01-25T07:34:54;18.97;;;11.03;;
25868;SDS011;13688;53.154;18.136;2023-01-25T07:40:17;14.70;;;9.50;;
25868;SDS011;13688;53.154;18.136;2023-01-25T07:45:39;15.87;;;9.50;;
25868;SDS011;13688;53.154;18.136;2023-01-25T07:51:03;16.75;;;9.73;;
25868;SDS011;13688;53.154;18.136;2023-01-25T07:56:30;16.20;;;9.70;;
25868;SDS011;13688;53.154;18.136;2023-01-25T08:01:53;16.42;;;10.20;;
25868;SDS011;13688;53.154;18.136;2023-01-25T08:07:17;17.20;;;10.50;;
25868;SDS011;13688;53.154;18.136;2023-01-25T08:12:39;13.70;;;9.27;;
25868;SDS011;13688;53.154;18.136;2023-01-25T08:18:03;15.63;;;10.60;;
25868;SDS011;13688;53.154;18.136;2023-01-25T08:23:26;26.37;;;16.60;;
25868;SDS011;13688;53.154;18.136;2023-01-25T08:28:49;20.23;;;11.30;;
25868;SDS011;13688;53.154;18.136;2023-01-25T08:34:11;18.00;;;10.63;;
25868;SDS011;13688;53.154;18.136;2023-01-25T08:39:34;20.20;;;12.00;;
25868;SDS011;13688;53.154;18.136;2023-01-25T08:44:57;22.77;;;12.88;;
25868;SDS011;13688;53.154;18.136;2023-01-25T08:50:19;21.23;;;12.75;;
25868;SDS011;13688;53.154;18.136;2023-01-25T08:55:43;18.07;;;11.30;;
25868;SDS011;13688;53.154;18.136;2023-01-25T09:01:06;22.52;;;12.40;;
25868;SDS011;13688;53.154;18.136;2023-01-25T09:06:30;20.67;;;13.60;;
25868;SDS011;13688;53.154;18.136;2023-01-25T09:11:52;22.87;;;12.97;;
25868;SDS011;13688;53.154;18.136;2023-01-25T09:17:14;20.20;;;12.73;;
25868;SDS011;13688;53.154;18.136;2023-01-25T09:22:38;21.93;;;13.33;;
25868;SDS011;13688;53.154;18.136;2023-01-25T09:28:01;20.17;;;13.30;;
25868;SDS011;13688;53.154;18.136;2023-01-25T09:33:24;22.13;;;12.90;;
25868;SDS011;13688;53.154;18.136;2023-01-25T09:38:49;21.60;;;14.40;;
25868;SDS011;13688;53.154;18.136;2023-01-25T09:44:28;22.80;;;15.30;;
25868;SDS011;13688;53.154;18.136;2023-01-25T09:56:22;24.97;;;16.10;;
25868;SDS011;13688;53.154;18.136;2023-01-25T10:01:51;24.80;;;14.90;;
25868;SDS011;13688;53.154;18.136;2023-01-25T10:07:55;23.18;;;15.55;;
25868;SDS011;13688;53.154;18.136;2023-01-25T10:13:23;27.30;;;16.27;;
25868;SDS011;13688;53.154;18.136;2023-01-25T10:18:52;25.43;;;15.48;;
25868;SDS011;13688;53.154;18.136;2023-01-25T10:24:22;23.12;;;15.38;;
25868;SDS011;13688;53.154;18.136;2023-01-25T10:35:48;29.53;;;16.90;;
25868;SDS011;13688;53.154;18.136;2023-01-25T10:42:01;29.67;;;16.40;;
25868;SDS011;13688;53.154;18.136;2023-01-25T10:47:03;27.30;;;16.53;;
25868;SDS011;13688;53.154;18.136;2023-01-25T10:52:42;24.77;;;15.10;;
25868;SDS011;13688;53.154;18.136;2023-01-25T10:58:27;27.40;;;16.50;;
25868;SDS011;13688;53.154;18.136;2023-01-25T11:04:23;32.63;;;16.43;;
25868;SDS011;13688;53.154;18.136;2023-01-25T11:09:49;28.60;;;16.40;;
25868;SDS011;13688;53.154;18.136;2023-01-25T11:15:21;30.97;;;16.77;;
25868;SDS011;13688;53.154;18.136;2023-01-25T11:20:47;27.87;;;16.57;;
25868;SDS011;13688;53.154;18.136;2023-01-25T11:26:37;30.33;;;16.43;;
25868;SDS011;13688;53.154;18.136;2023-01-25T11:32:01;36.97;;;16.17;;
25868;SDS011;13688;53.154;18.136;2023-01-25T11:49:37;29.77;;;17.87;;
25868;SDS011;13688;53.154;18.136;2023-01-25T11:55:27;27.63;;;16.63;;
25868;SDS011;13688;53.154;18.136;2023-01-25T12:07:03;23.30;;;14.50;;
25868;SDS011;13688;53.154;18.136;2023-01-25T12:24:41;30.90;;;18.50;;
25868;SDS011;13688;53.154;18.136;2023-01-25T12:30:16;27.23;;;16.63;;
25868;SDS011;13688;53.154;18.136;2023-01-25T12:35:59;28.47;;;16.90;;
25868;SDS011;13688;53.154;18.136;2023-01-25T12:41:29;27.90;;;17.13;;
25868;SDS011;13688;53.154;18.136;2023-01-25T12:47:03;27.03;;;16.27;;
25868;SDS011;13688;53.154;18.136;2023-01-25T12:52:40;27.27;;;17.23;;
25868;SDS011;13688;53.154;18.136;2023-01-25T12:58:27;35.17;;;19.07;;
25868;SDS011;13688;53.154;18.136;2023-01-25T13:04:03;32.53;;;19.13;;
25868;SDS011;13688;53.154;18.136;2023-01-25T13:09:56;31.43;;;17.97;;
25868;SDS011;13688;53.154;18.136;2023-01-25T13:15:42;32.47;;;17.33;;
25868;SDS011;13688;53.154;18.136;2023-01-25T13:21:08;27.33;;;17.57;;
25868;SDS011;13688;53.154;18.136;2023-01-25T13:43:52;32.37;;;18.27;;
25868;SDS011;13688;53.154;18.136;2023-01-25T13:49:24;35.73;;;21.13;;
25868;SDS011;13688;53.154;18.136;2023-01-25T13:54:53;33.30;;;20.43;;
25868;SDS011;13688;53.154;18.136;2023-01-25T14:00:18;30.20;;;18.33;;
25868;SDS011;13688;53.154;18.136;2023-01-25T14:05:47;30.23;;;19.50;;
25868;SDS011;13688;53.154;18.136;2023-01-25T14:11:08;33.43;;;19.07;;
25868;SDS011;13688;53.154;18.136;2023-01-25T14:16:38;33.07;;;18.97;;
25868;SDS011;13688;53.154;18.136;2023-01-25T14:22:25;33.47;;;20.23;;
25868;SDS011;13688;53.154;18.136;2023-01-25T14:27:49;34.67;;;20.90;;
25868;SDS011;13688;53.154;18.136;2023-01-25T14:33:20;38.58;;;21.80;;
25868;SDS011;13688;53.154;18.136;2023-01-25T14:38:46;36.55;;;22.50;;
25868;SDS011;13688;53.154;18.136;2023-01-25T14:44:12;39.70;;;23.83;;
25868;SDS011;13688;53.154;18.136;2023-01-25T14:49:36;43.53;;;24.40;;
25868;SDS011;13688;53.154;18.136;2023-01-25T14:54:59;41.40;;;24.20;;
25868;SDS011;13688;53.154;18.136;2023-01-25T15:00:24;42.73;;;23.90;;
25868;SDS011;13688;53.154;18.136;2023-01-25T15:05:47;44.90;;;25.20;;
25868;SDS011;13688;53.154;18.136;2023-01-25T15:11:47;43.13;;;24.98;;
25868;SDS011;13688;53.154;18.136;2023-01-25T15:22:13;46.50;;;25.37;;
25868;SDS011;13688;53.154;18.136;2023-01-25T15:27:33;43.17;;;24.87;;
25868;SDS011;13688;53.154;18.136;2023-01-25T15:32:57;41.63;;;24.72;;
25868;SDS011;13688;53.154;18.136;2023-01-25T15:38:25;47.83;;;25.60;;
25868;SDS011;13688;53.154;18.136;2023-01-25T15:43:48;45.38;;;26.10;;
25868;SDS011;13688;53.154;18.136;2023-01-25T15:49:16;47.53;;;26.23;;
25868;SDS011;13688;53.154;18.136;2023-01-25T15:54:40;55.23;;;28.20;;
25868;SDS011;13688;53.154;18.136;2023-01-25T16:00:05;47.45;;;27.65;;
25868;SDS011;13688;53.154;18.136;2023-01-25T16:05:36;52.97;;;30.73;;
25868;SDS011;13688;53.154;18.136;2023-01-25T16:11:00;56.13;;;30.37;;
25868;SDS011;13688;53.154;18.136;2023-01-25T16:16:22;52.08;;;28.57;;
25868;SDS011;13688;53.154;18.136;2023-01-25T16:21:48;50.98;;;29.23;;
25868;SDS011;13688;53.154;18.136;2023-01-25T16:27:16;49.75;;;28.10;;
25868;SDS011;13688;53.154;18.136;2023-01-25T16:32:37;54.77;;;28.80;;
25868;SDS011;13688;53.154;18.136;2023-01-25T16:37:59;53.00;;;29.27;;
25868;SDS011;13688;53.154;18.136;2023-01-25T16:43:23;52.37;;;28.67;;
25868;SDS011;13688;53.154;18.136;2023-01-25T16:48:46;53.80;;;29.42;;
25868;SDS011;13688;53.154;18.136;2023-01-25T16:54:15;62.83;;;31.93;;
25868;SDS011;13688;53.154;18.136;2023-01-25T16:59:38;56.37;;;29.18;;
25868;SDS011;13688;53.154;18.136;2023-01-25T17:05:03;52.23;;;29.57;;
25868;SDS011;13688;53.154;18.136;2023-01-25T17:10:27;54.83;;;28.52;;
25868;SDS011;13688;53.154;18.136;2023-01-25T17:15:54;57.03;;;30.00;;
25868;SDS011;13688;53.154;18.136;2023-01-25T17:21:17;50.10;;;27.85;;
25868;SDS011;13688;53.154;18.136;2023-01-25T17:26:39;55.43;;;29.80;;
25868;SDS011;13688;53.154;18.136;2023-01-25T17:32:04;50.15;;;26.75;;
25868;SDS011;13688;53.154;18.136;2023-01-25T17:37:26;49.80;;;27.13;;
25868;SDS011;13688;53.154;18.136;2023-01-25T17:42:49;56.00;;;30.57;;
25868;SDS011;13688;53.154;18.136;2023-01-25T17:48:12;52.03;;;28.67;;
25868;SDS011;13688;53.154;18.136;2023-01-25T17:53:35;56.80;;;28.17;;
25868;SDS011;13688;53.154;18.136;2023-01-25T17:58:57;59.30;;;30.57;;
25868;SDS011;13688;53.154;18.136;2023-01-25T18:04:19;59.83;;;30.80;;
25868;SDS011;13688;53.154;18.136;2023-01-25T18:09:43;56.83;;;29.27;;
25868;SDS011;13688;53.154;18.136;2023-01-25T18:15:06;58.85;;;32.28;;
25868;SDS011;13688;53.154;18.136;2023-01-25T18:20:28;52.77;;;29.93;;
25868;SDS011;13688;53.154;18.136;2023-01-25T18:25:51;60.70;;;29.47;;
25868;SDS011;13688;53.154;18.136;2023-01-25T18:31:15;54.83;;;26.97;;
25868;SDS011;13688;53.154;18.136;2023-01-25T18:36:37;51.33;;;27.65;;
25868;SDS011;13688;53.154;18.136;2023-01-25T18:42:02;61.42;;;29.70;;
25868;SDS011;13688;53.154;18.136;2023-01-25T18:47:25;55.75;;;29.50;;
25868;SDS011;13688;53.154;18.136;2023-01-25T18:52:47;48.67;;;26.27;;
25868;SDS011;13688;53.154;18.136;2023-01-25T18:58:12;44.95;;;24.87;;
25868;SDS011;13688;53.154;18.136;2023-01-25T19:03:35;54.83;;;26.57;;
25868;SDS011;13688;53.154;18.136;2023-01-25T19:08:59;49.53;;;25.70;;
25868;SDS011;13688;53.154;18.136;2023-01-25T19:14:22;50.13;;;25.27;;
25868;SDS011;13688;53.154;18.136;2023-01-25T19:19:45;49.37;;;26.47;;
25868;SDS011;13688;53.154;18.136;2023-01-25T19:25:07;52.38;;;24.70;;
25868;SDS011;13688;53.154;18.136;2023-01-25T19:30:31;46.63;;;23.90;;
25868;SDS011;13688;53.154;18.136;2023-01-25T19:35:58;49.33;;;24.60;;
25868;SDS011;13688;53.154;18.136;2023-01-25T19:41:27;44.10;;;21.77;;
25868;SDS011;13688;53.154;18.136;2023-01-25T19:46:50;46.30;;;22.40;;
25868;SDS011;13688;53.154;18.136;2023-01-25T19:52:12;51.77;;;24.10;;
25868;SDS011;13688;53.154;18.136;2023-01-25T19:57:35;45.67;;;23.47;;
25868;SDS011;13688;53.154;18.136;2023-01-25T20:02:58;49.37;;;22.83;;
25868;SDS011;13688;53.154;18.136;2023-01-25T20:08:20;50.17;;;25.30;;
25868;SDS011;13688;53.154;18.136;2023-01-25T20:13:48;46.63;;;23.33;;
25868;SDS011;13688;53.154;18.136;2023-01-25T20:19:16;37.47;;;18.63;;
25868;SDS011;13688;53.154;18.136;2023-01-25T20:24:39;50.03;;;24.87;;
25868;SDS011;13688;53.154;18.136;2023-01-25T20:30:02;48.67;;;26.53;;
25868;SDS011;13688;53.154;18.136;2023-01-25T20:35:25;53.63;;;25.93;;
25868;SDS011;13688;53.154;18.136;2023-01-25T20:40:47;45.50;;;23.60;;
25868;SDS011;13688;53.154;18.136;2023-01-25T20:46:18;52.13;;;25.97;;
25868;SDS011;13688;53.154;18.136;2023-01-25T20:51:43;55.10;;;26.43;;
25868;SDS011;13688;53.154;18.136;2023-01-25T20:57:07;56.47;;;27.80;;
25868;SDS011;13688;53.154;18.136;2023-01-25T21:02:30;53.67;;;27.97;;
25868;SDS011;13688;53.154;18.136;2023-01-25T21:07:54;58.37;;;28.83;;
25868;SDS011;13688;53.154;18.136;2023-01-25T21:13:17;62.53;;;32.17;;
25868;SDS011;13688;53.154;18.136;2023-01-25T21:18:42;60.33;;;28.63;;
25868;SDS011;13688;53.154;18.136;2023-01-25T21:24:07;55.70;;;27.87;;
25868;SDS011;13688;53.154;18.136;2023-01-25T21:29:30;51.28;;;25.45;;
25868;SDS011;13688;53.154;18.136;2023-01-25T21:34:52;60.40;;;29.80;;
25868;SDS011;13688;53.154;18.136;2023-01-25T21:40:15;62.33;;;29.97;;
25868;SDS011;13688;53.154;18.136;2023-01-25T21:45:38;61.42;;;29.92;;
25868;SDS011;13688;53.154;18.136;2023-01-25T21:51:20;66.10;;;30.73;;
25868;SDS011;13688;53.154;18.136;2023-01-25T21:56:45;62.10;;;30.72;;
25868;SDS011;13688;53.154;18.136;2023-01-25T22:02:12;67.53;;;30.93;;
25868;SDS011;13688;53.154;18.136;2023-01-25T22:07:35;66.30;;;31.52;;
25868;SDS011;13688;53.154;18.136;2023-01-25T22:12:57;64.75;;;30.80;;
25868;SDS011;13688;53.154;18.136;2023-01-25T22:18:20;63.13;;;30.37;;
25868;SDS011;13688;53.154;18.136;2023-01-25T22:23:44;64.45;;;32.50;;
25868;SDS011;13688;53.154;18.136;2023-01-25T22:29:07;67.17;;;33.60;;
25868;SDS011;13688;53.154;18.136;2023-01-25T22:34:30;67.60;;;33.48;;
25868;SDS011;13688;53.154;18.136;2023-01-25T22:39:52;71.37;;;32.10;;
25868;SDS011;13688;53.154;18.136;2023-01-25T22:45:16;68.57;;;32.28;;
25868;SDS011;13688;53.154;18.136;2023-01-25T22:50:38;71.77;;;31.53;;
25868;SDS011;13688;53.154;18.136;2023-01-25T22:56:05;72.32;;;33.75;;
25868;SDS011;13688;53.154;18.136;2023-01-25T23:01:31;74.93;;;33.47;;
25868;SDS011;13688;53.154;18.136;2023-01-25T23:06:54;70.33;;;33.37;;
25868;SDS011;13688;53.154;18.136;2023-01-25T23:12:18;74.10;;;34.27;;
25868;SDS011;13688;53.154;18.136;2023-01-25T23:17:41;72.23;;;33.47;;
25868;SDS011;13688;53.154;18.136;2023-01-25T23:28:36;67.95;;;31.65;;
25868;SDS011;13688;53.154;18.136;2023-01-25T23:34:03;66.80;;;30.53;;
25868;SDS011;13688;53.154;18.136;2023-01-25T23:39:26;69.10;;;30.00;;
25868;SDS011;13688;53.154;18.136;2023-01-25T23:44:48;67.37;;;31.17;;
25868;SDS011;13688;53.154;18.136;2023-01-25T23:50:11;76.33;;;33.58;;
25868;SDS011;13688;53.154;18.136;2023-01-25T23:55:33;70.78;;;31.80;;
